Samary, Russia
Current Conditions -  °F | °C
As of 2:30 PM on Thursday 18 Dec 2014 (Local Time) from USPP Reporting Station
Clear Clear  
Wind Chill: 17°   Ceiling: Unl
Heat Index: 28°   Visibility: 6mi
Dew Point: 23°   Wind: 16mph
Humidity: 80%   Direction: 190°S
Pressure: 29.94"   Gusts: 25mph
Location:  57.35°N, 58.22°E
Report Text: USPP 180930Z 19007G11MPS CAVOK M02/M05 Q1014 21290150 NOSIG RMKQFE750/1000
Loading
Personal Weather Stations






























Interactive Weather Map New forecast layout! Learn more

10-Day Weather Forecast

Advertisements
Track Severe Weather on mobile